Vernal, Utah
Current Conditions -  °F | °C
As of 2:53 AM on Thursday 29 Jan 2015 (Local Time) from KVEL Reporting Station
Overcast Overcast  
Wind Chill: 38°   Ceiling: 7000
Heat Index: 38°   Visibility: 10mi
Dew Point: 28°   Wind: 0mph
Humidity: 68%   Direction: NA
Pressure: 30.36"   Gusts: NA
Location:  40.46°N, 109.52°W
Report Text: KVEL 290953Z AUTO 00000KT 10SM OVC070 03/M02 A3036 RMK AO2 SLP273 T00331022
Loading
Personal Weather Stations






























Interactive Weather Map New forecast layout! Learn more

10-Day Weather Forecast

Advertisements
Track Severe Weather on mobile